Time;durP1;ratioP1;P1;durP2;ratioP2;P2;SDS_P1;SDS_P2;PMS_P1;PMS_P2;Temp;Humidity;BMP_temperature;BMP_pressure;BME280_temperature;BME280_humidity;BME280_pressure;Samples;Min_cycle;Max_cycle;Signal;HPM_P1;HPM_P2
2022/05/06 00:05:00;;;;;;;14.17;8.90;;;;;;;8.89;85.59;101131.72;3528744;83;99149;-80
2022/05/06 00:10:03;;;;;;;14.93;9.27;;;;;;;8.84;85.48;101132.55;3482668;83;98675;-80
2022/05/06 00:15:07;;;;;;;13.30;8.17;;;;;;;8.78;85.32;101140.81;3484009;83;98483;-80
2022/05/06 00:20:09;;;;;;;15.08;7.80;;;;;;;8.74;85.13;101138.52;3492822;83;98757;-80
2022/05/06 00:25:10;;;;;;;16.02;8.85;;;;;;;8.68;84.61;101134.42;3513587;83;99137;-81
2022/05/06 00:30:12;;;;;;;14.70;8.87;;;;;;;8.43;85.04;101113.66;3516904;83;98931;-81
2022/05/06 00:35:13;;;;;;;15.90;7.80;;;;;;;8.43;85.04;101113.66;3484797;84;98644;-81
2022/05/06 00:40:14;;;;;;;13.93;7.43;;;;;;;8.47;84.64;101140.64;3548348;83;33484;-80
2022/05/06 00:45:15;;;;;;;12.83;8.03;;;;;;;8.42;84.60;101141.69;3480250;84;98600;-80
2022/05/06 00:50:17;;;;;;;15.23;9.37;;;;;;;8.34;84.20;101143.97;3548017;83;98710;-80
2022/05/06 00:55:18;;;;;;;15.18;8.63;;;;;;;8.30;84.74;101142.27;3479115;84;99108;-80
2022/05/06 01:00:19;;;;;;;19.00;8.73;;;;;;;8.23;84.88;101148.31;3476484;83;98676;-80
2022/05/06 01:05:22;;;;;;;15.33;10.10;;;;;;;8.16;84.74;101138.47;3489915;83;99051;-80
2022/05/06 01:10:23;;;;;;;16.73;9.43;;;;;;;8.11;84.64;101144.19;3499101;84;26018;-81
2022/05/06 01:15:27;;;;;;;17.50;10.97;;;;;;;8.05;85.48;101143.38;3471645;84;98523;-80
2022/05/06 01:20:28;;;;;;;17.05;9.55;;;;;;;7.94;85.84;101137.56;3500731;83;99237;-80
2022/05/06 01:25:29;;;;;;;14.57;9.53;;;;;;;7.90;85.59;101145.45;3483706;83;98654;-81
2022/05/06 01:30:42;;;;;;;16.87;9.63;;;;;;;7.85;85.88;101157.41;3486091;84;98759;-81
2022/05/06 01:35:48;;;;;;;16.13;10.40;;;;;;;7.79;85.85;101156.63;3468896;84;98684;-81
2022/05/06 01:40:53;;;;;;;15.70;10.05;;;;;;;7.74;85.76;101163.69;3492607;84;98573;-80
2022/05/06 01:45:56;;;;;;;17.10;10.07;;;;;;;7.66;86.45;101169.50;3485849;83;98749;-80
2022/05/06 01:50:59;;;;;;;15.77;9.80;;;;;;;7.57;85.93;101175.63;3481763;83;99074;-80
2022/05/06 01:56:02;;;;;;;13.53;8.20;;;;;;;7.52;86.56;101181.31;3451237;84;98999;-81
2022/05/06 02:01:04;;;;;;;15.80;8.80;;;;;;;7.45;86.36;101188.48;3507151;82;98718;-80
2022/05/06 02:06:05;;;;;;;13.80;8.47;;;;;;;7.39;86.05;101185.17;3487447;83;98610;-80
2022/05/06 02:11:06;;;;;;;15.77;9.63;;;;;;;7.31;86.54;101195.62;3508183;83;98407;-81
2022/05/06 02:16:08;;;;;;;17.27;9.47;;;;;;;7.26;86.42;101200.52;3510743;83;98292;-80
2022/05/06 02:21:09;;;;;;;16.70;9.50;;;;;;;7.21;86.59;101201.50;3494609;83;99177;-80
2022/05/06 02:26:10;;;;;;;15.33;9.33;;;;;;;7.18;86.63;101205.48;3509184;84;98959;-80
2022/05/06 02:36:30;;;;;;;14.63;9.27;;;;;;;7.08;87.25;101199.86;3501406;83;99202;-82
2022/05/06 02:41:30;;;;;;;14.67;9.37;;;;;;;7.04;87.00;101203.02;3503765;83;98697;-80
2022/05/06 02:46:34;;;;;;;13.37;9.13;;;;;;;7.00;87.88;101208.14;3511276;83;33245;-81
2022/05/06 02:51:35;;;;;;;16.15;9.98;;;;;;;6.92;88.10;101212.54;3503436;83;98789;-80
2022/05/06 02:56:35;;;;;;;15.57;10.47;;;;;;;6.85;88.60;101212.28;3510717;83;98902;-81
2022/05/06 03:01:36;;;;;;;14.93;9.97;;;;;;;6.81;88.54;101211.33;3528383;81;98896;-81
2022/05/06 03:06:38;;;;;;;18.03;11.80;;;;;;;6.76;88.00;101212.11;3529084;82;99062;-80
2022/05/06 03:11:39;;;;;;;19.97;11.10;;;;;;;6.73;88.43;101218.23;3536779;82;99064;-80
2022/05/06 03:16:41;;;;;;;20.10;11.00;;;;;;;6.68;88.15;101229.37;3541831;83;33252;-81
2022/05/06 03:21:42;;;;;;;20.10;10.93;;;;;;;6.60;88.30;101228.28;3520387;83;99035;-81
2022/05/06 03:26:45;;;;;;;16.73;10.77;;;;;;;6.53;88.14;101229.38;3527616;83;98986;-81
2022/05/06 03:31:46;;;;;;;21.55;12.55;;;;;;;6.50;88.14;101226.51;3542766;83;99085;-80
2022/05/06 03:36:47;;;;;;;22.47;12.10;;;;;;;6.45;88.28;101239.81;3541652;82;99247;-81
2022/05/06 03:41:48;;;;;;;17.60;11.67;;;;;;;6.43;88.13;101238.53;3546578;82;99053;-81
2022/05/06 03:46:49;;;;;;;17.07;10.20;;;;;;;6.41;88.88;101248.98;3547540;81;33194;-81
2022/05/06 03:51:50;;;;;;;17.93;10.77;;;;;;;6.35;88.75;101249.75;3511201;83;99076;-81
2022/05/06 03:56:51;;;;;;;23.57;12.93;;;;;;;6.30;88.57;101255.39;3545594;82;99111;-82
2022/05/06 04:01:52;;;;;;;18.27;12.20;;;;;;;6.28;89.29;101253.54;3549697;81;99596;-81
2022/05/06 04:06:53;;;;;;;20.57;13.07;;;;;;;6.27;89.07;101253.30;3517069;83;99187;-81
2022/05/06 04:11:56;;;;;;;23.77;14.50;;;;;;;6.29;89.71;101262.00;3554735;82;99136;-81
2022/05/06 04:16:56;;;;;;;23.23;13.83;;;;;;;6.29;89.94;101255.72;3542678;82;33157;-81
2022/05/06 04:27:17;;;;;;;21.07;12.50;;;;;;;6.36;91.47;101273.77;3512866;83;98701;-81
2022/05/06 04:32:18;;;;;;;20.80;12.57;;;;;;;6.42;92.31;101270.53;3517325;83;98846;-81
2022/05/06 04:37:19;;;;;;;22.27;13.07;;;;;;;6.50;93.59;101272.41;3505977;82;98878;-81
2022/05/06 04:42:21;;;;;;;22.90;13.83;;;;;;;6.60;94.84;101271.27;3503288;83;99112;-81
2022/05/06 04:47:21;;;;;;;21.37;12.07;;;;;;;6.71;95.43;101281.48;3524568;83;99129;-81
2022/05/06 04:52:22;;;;;;;23.03;13.33;;;;;;;6.81;94.79;101289.89;3528528;83;98869;-81
2022/05/06 04:57:23;;;;;;;22.87;13.40;;;;;;;6.89;95.56;101292.58;3528459;83;99082;-82
2022/05/06 05:02:26;;;;;;;23.33;12.87;;;;;;;6.99;94.95;101296.86;3512440;83;98924;-81
2022/05/06 05:07:27;;;;;;;24.87;12.83;;;;;;;7.08;94.42;101301.69;3520430;83;98840;-81
2022/05/06 05:12:28;;;;;;;20.27;12.00;;;;;;;7.28;96.38;101296.80;3536373;82;99059;-80
2022/05/06 05:17:29;;;;;;;26.77;11.37;;;;;;;7.44;95.98;101301.91;3525080;83;99295;-81
2022/05/06 05:22:33;;;;;;;21.73;11.60;;;;;;;7.60;95.99;101300.98;3524311;83;99262;-81
2022/05/06 05:27:38;;;;;;;16.40;9.63;;;;;;;7.90;97.33;101303.81;3531623;82;98680;-80
2022/05/06 05:32:39;;;;;;;22.17;10.07;;;;;;;8.33;97.28;101304.75;3483890;83;98825;-82
2022/05/06 05:37:40;;;;;;;24.90;10.10;;;;;;;8.95;98.11;101306.02;3551377;82;99150;-85
2022/05/06 05:42:41;;;;;;;13.63;7.23;;;;;;;9.78;97.61;101310.28;3535608;82;99336;-86
2022/05/06 05:53:02;;;;;;;15.28;6.37;;;;;;;11.43;93.29;101313.30;3534533;82;98631;-86
2022/05/06 05:58:03;;;;;;;10.83;5.77;;;;;;;12.13;91.38;101292.69;3507600;83;99397;-86
2022/05/06 06:03:03;;;;;;;14.23;6.27;;;;;;;12.86;88.40;101290.38;3462598;83;99014;-86
2022/05/06 06:08:05;;;;;;;13.60;5.70;;;;;;;13.29;85.98;101278.81;3536790;83;99095;-85
2022/05/06 06:13:06;;;;;;;10.53;5.40;;;;;;;13.89;84.17;101312.17;3547891;82;99308;-84
2022/05/06 06:18:07;;;;;;;12.23;5.50;;;;;;;14.26;82.65;101301.94;3553018;83;99135;-84
2022/05/06 06:23:08;;;;;;;12.77;5.77;;;;;;;14.63;80.51;101305.45;3527118;82;99094;-84
2022/05/06 06:28:09;;;;;;;12.63;5.43;;;;;;;14.88;77.91;101304.27;3542846;82;99126;-83
2022/05/06 06:33:10;;;;;;;14.77;6.00;;;;;;;15.24;76.74;101319.38;3539485;82;99160;-83
2022/05/06 06:38:11;;;;;;;11.27;5.13;;;;;;;15.57;76.15;101319.77;3552473;82;99091;-83
2022/05/06 06:43:13;;;;;;;10.13;5.13;;;;;;;15.70;73.89;101330.14;3542834;82;99229;-83
2022/05/06 06:48:14;;;;;;;12.17;5.07;;;;;;;15.80;73.38;101319.69;3558630;82;98221;-84
2022/05/06 06:53:15;;;;;;;11.33;4.20;;;;;;;15.88;71.32;101323.28;3541990;82;98790;-83
2022/05/06 06:58:19;;;;;;;10.00;4.60;;;;;;;15.89;70.64;101329.84;3546402;82;33245;-83
2022/05/06 07:03:20;;;;;;;11.27;4.77;;;;;;;15.93;68.67;101329.27;3545302;82;99089;-87
2022/05/06 07:13:41;;;;;;;11.95;4.40;;;;;;;15.57;67.07;101330.29;3545780;82;99056;-84
2022/05/06 07:18:50;;;;;;;8.80;3.98;;;;;;;15.50;65.82;101336.39;3487799;83;98593;-84
2022/05/06 07:23:51;;;;;;;8.85;3.47;;;;;;;15.37;65.98;101333.14;3533436;80;98901;-85
2022/05/06 07:28:52;;;;;;;10.10;3.80;;;;;;;15.31;65.77;101340.81;3485181;83;25852;-85
2022/05/06 07:33:53;;;;;;;10.63;4.27;;;;;;;15.33;66.26;101343.44;3544903;82;98833;-85
2022/05/06 07:38:54;;;;;;;13.87;5.67;;;;;;;15.37;66.08;101342.07;3543680;82;98848;-85
2022/05/06 07:43:55;;;;;;;8.63;3.73;;;;;;;15.35;66.01;101340.26;3543224;82;99485;-85
2022/05/06 07:48:56;;;;;;;10.77;4.83;;;;;;;15.34;66.06;101339.48;3465714;82;98920;-85
2022/05/06 07:53:57;;;;;;;11.57;4.60;;;;;;;15.41;65.19;101345.06;3519101;82;99425;-85
2022/05/06 07:59:09;;;;;;;9.10;4.20;;;;;;;15.32;64.23;101345.95;3551608;83;33846;-85
2022/05/06 08:09:30;;;;;;;12.15;4.78;;;;;;;15.38;65.13;101351.98;3543839;80;98900;-85
2022/05/06 08:14:31;;;;;;;10.85;4.80;;;;;;;15.67;64.93;101357.88;3480571;84;98984;-84
2022/05/06 08:19:33;;;;;;;12.30;5.33;;;;;;;16.31;67.05;101356.38;3545030;82;98247;-85
2022/05/06 08:24:34;;;;;;;13.20;5.53;;;;;;;17.11;66.10;101355.66;3546394;82;99058;-85
2022/05/06 08:29:35;;;;;;;9.20;4.90;;;;;;;17.85;64.22;101356.33;3558428;81;99092;-85
2022/05/06 08:34:37;;;;;;;12.15;6.20;;;;;;;18.77;64.29;101360.21;3557954;82;98718;-84
2022/05/06 08:39:38;;;;;;;11.73;5.50;;;;;;;19.82;61.03;101357.00;3495144;83;98977;-85
2022/05/06 08:55:22;;;;;;;11.40;5.15;;;;;;;22.01;58.16;101353.88;3550002;83;99582;-84
2022/05/06 09:00:26;;;;;;;10.60;4.92;;;;;;;22.92;53.99;101356.00;3517859;83;99496;-84
2022/05/06 09:05:27;;;;;;;10.80;5.15;;;;;;;23.44;53.52;101349.03;3490562;83;98998;-84
2022/05/06 09:10:30;;;;;;;7.33;3.85;;;;;;;24.31;51.00;101349.94;3546726;82;25843;-84
2022/05/06 09:20:50;;;;;;;11.85;4.58;;;;;;;25.83;47.52;101354.91;3469653;84;99253;-85
2022/05/06 09:25:53;;;;;;;9.68;3.87;;;;;;;26.01;47.35;101355.05;3478559;83;99672;-85
2022/05/06 09:31:09;;;;;;;8.93;4.30;;;;;;;26.69;46.73;101352.77;3457192;83;99497;-85
2022/05/06 09:36:29;;;;;;;8.98;3.95;;;;;;;27.38;44.98;101345.43;3499460;83;99524;-85
2022/05/06 09:41:31;;;;;;;9.05;4.70;;;;;;;27.73;43.69;101352.33;3435755;83;98938;-85
2022/05/06 09:46:33;;;;;;;7.70;3.70;;;;;;;28.00;41.17;101348.09;3491928;83;25826;-85
2022/05/06 09:51:34;;;;;;;8.95;3.98;;;;;;;27.92;41.37;101350.30;3540426;82;99107;-85
2022/05/06 09:56:37;;;;;;;10.82;4.15;;;;;;;28.54;41.76;101339.47;3493897;83;99489;-86
2022/05/06 10:01:38;;;;;;;8.90;3.52;;;;;;;29.05;40.87;101342.23;3454874;83;99685;-85
2022/05/06 10:06:39;;;;;;;10.65;3.47;;;;;;;29.42;40.31;101332.96;3459887;82;99405;-86
2022/05/06 10:11:41;;;;;;;7.47;3.90;;;;;;;29.68;39.37;101334.03;3484734;83;99022;-86
2022/05/06 10:16:42;;;;;;;9.83;4.17;;;;;;;30.06;37.96;101322.62;3540002;82;26294;-84
2022/05/06 10:21:48;;;;;;;7.47;3.30;;;;;;;29.73;37.94;101331.15;3496447;83;98903;-86
2022/05/06 10:26:51;;;;;;;9.63;3.65;;;;;;;30.28;37.69;101316.55;3544153;82;98277;-86
2022/05/06 10:37:15;;;;;;;6.60;2.90;;;;;;;30.38;35.20;101320.86;3469354;84;99207;-86
2022/05/06 10:42:18;;;;;;;8.08;3.80;;;;;;;29.99;35.47;101315.92;3489725;83;98895;-86
2022/05/06 10:47:24;;;;;;;7.83;3.65;;;;;;;29.80;35.99;101319.44;3484404;84;99156;-87
2022/05/06 10:52:41;;;;;;;8.00;3.30;;;;;;;30.16;35.17;101306.28;3475491;84;99080;-86
2022/05/06 10:57:56;;;;;;;7.90;2.85;;;;;;;29.94;34.17;101312.97;3468068;83;99133;-85
2022/05/06 11:02:59;;;;;;;6.17;2.62;;;;;;;29.70;34.48;101308.02;3483198;83;99411;-85
2022/05/06 11:08:01;;;;;;;7.47;2.62;;;;;;;30.17;34.43;101300.75;3555236;83;99162;-86
2022/05/06 11:13:07;;;;;;;7.40;2.65;;;;;;;30.36;34.35;101297.84;3554867;83;98945;-87
2022/05/06 11:18:08;;;;;;;10.65;2.83;;;;;;;30.54;34.05;101294.77;3562290;82;98880;-87
2022/05/06 11:23:14;;;;;;;6.80;2.70;;;;;;;30.44;34.07;101287.00;3542227;82;98760;-86
2022/05/06 11:28:20;;;;;;;8.73;2.75;;;;;;;30.20;33.10;101285.58;3505406;84;97580;-86
2022/05/06 11:33:24;;;;;;;8.63;3.02;;;;;;;29.82;34.29;101280.78;3556949;82;98691;-86
2022/05/06 11:38:38;;;;;;;5.17;2.47;;;;;;;29.61;34.71;101275.46;3558686;82;98910;-87
2022/05/06 11:43:42;;;;;;;8.93;3.22;;;;;;;29.36;33.47;101275.99;3545145;82;99203;-86
2022/05/06 11:48:45;;;;;;;6.37;2.60;;;;;;;28.97;32.35;101275.19;3570681;83;99215;-87
2022/05/06 11:53:48;;;;;;;10.68;2.95;;;;;;;28.52;34.29;101269.77;3548651;82;98773;-87
2022/05/06 11:58:52;;;;;;;7.58;2.27;;;;;;;28.36;34.86;101258.80;3506496;83;26183;-88
2022/05/06 12:03:53;;;;;;;5.60;2.25;;;;;;;28.07;34.19;101267.73;3445697;83;98632;-85
2022/05/06 12:09:16;;;;;;;7.55;3.00;;;;;;;27.92;35.22;101260.55;3434845;83;98660;-87
2022/05/06 12:14:18;;;;;;;7.03;2.12;;;;;;;28.09;34.01;101268.82;3499394;82;98938;-87
2022/05/06 12:19:19;;;;;;;3.58;2.12;;;;;;;27.92;34.98;101267.63;3503322;82;98030;-88
2022/05/06 12:24:20;;;;;;;5.10;1.95;;;;;;;27.64;35.09;101256.80;3496129;82;98879;-88
2022/05/06 12:29:22;;;;;;;6.85;2.22;;;;;;;27.48;34.73;101245.21;3473156;83;98818;-89
2022/05/06 12:34:29;;;;;;;4.90;1.87;;;;;;;27.12;35.08;101238.12;3477316;83;98514;-88
2022/05/06 12:39:36;;;;;;;4.05;1.50;;;;;;;26.61;34.24;101239.95;3422715;84;99152;-87
2022/05/06 12:44:37;;;;;;;4.80;2.08;;;;;;;26.08;35.33;101243.33;3486806;83;98859;-86
2022/05/06 12:55:54;;;;;;;5.90;2.00;;;;;;;26.36;36.46;101236.53;3495519;83;98871;-86
2022/05/06 13:00:58;;;;;;;3.37;1.67;;;;;;;26.25;36.37;101232.74;3494274;83;99244;-88
2022/05/06 13:05:59;;;;;;;3.50;1.70;;;;;;;26.06;36.83;101233.14;3477631;83;99405;-87
2022/05/06 13:11:00;;;;;;;5.35;1.90;;;;;;;26.10;36.68;101223.91;3464135;84;98459;-86
2022/05/06 13:16:01;;;;;;;3.25;1.65;;;;;;;25.96;36.10;101230.11;3477985;84;97916;-87
2022/05/06 13:21:03;;;;;;;8.53;2.10;;;;;;;25.81;36.68;101228.44;3429513;85;98998;-85
2022/05/06 13:26:05;;;;;;;3.22;1.57;;;;;;;25.75;35.67;101214.78;3457687;83;98031;-86
2022/05/06 13:31:06;;;;;;;4.37;2.00;;;;;;;25.64;36.62;101216.42;3468764;84;99297;-87
2022/05/06 13:36:07;;;;;;;8.40;2.35;;;;;;;25.52;36.58;101220.91;3483861;84;98739;-88
2022/05/06 13:41:08;;;;;;;6.03;2.02;;;;;;;25.03;36.01;101215.66;3456096;84;99028;-89
2022/05/06 13:46:11;;;;;;;6.60;2.05;;;;;;;24.97;36.79;101220.30;3481988;84;98687;-88
2022/05/06 13:51:12;;;;;;;5.03;2.05;;;;;;;24.82;37.33;101219.83;3466916;84;98877;-87
2022/05/06 14:01:36;;;;;;;6.42;1.85;;;;;;;24.38;37.50;101212.46;3468902;84;99284;-87
2022/05/06 14:06:37;;;;;;;6.85;2.00;;;;;;;24.33;38.09;101217.25;3473708;84;99318;-89
2022/05/06 14:11:38;;;;;;;5.40;2.15;;;;;;;24.18;38.18;101208.48;3513444;83;98813;-88
2022/05/06 14:16:39;;;;;;;5.83;2.45;;;;;;;23.44;37.93;101203.55;3513164;83;25890;-88
2022/05/06 14:21:40;;;;;;;8.38;2.15;;;;;;;23.26;38.73;101206.87;3516215;83;99018;-87
2022/05/06 14:26:41;;;;;;;4.58;2.00;;;;;;;23.08;39.18;101202.34;3519214;83;98942;-87
2022/05/06 14:31:50;;;;;;;3.70;1.70;;;;;;;22.68;39.50;101205.22;3511532;83;99302;-89
2022/05/06 14:36:58;;;;;;;4.05;1.67;;;;;;;22.40;38.96;101203.11;3487402;83;98794;-88
2022/05/06 14:41:59;;;;;;;7.20;1.85;;;;;;;22.22;40.01;101208.98;3510405;83;98863;-88
2022/05/06 14:47:01;;;;;;;4.60;2.08;;;;;;;22.14;40.35;101199.97;3518861;83;26334;-87
2022/05/06 14:52:05;;;;;;;5.05;1.77;;;;;;;22.14;41.14;101204.18;3497450;83;99144;-88
2022/05/06 14:57:06;;;;;;;3.30;1.62;;;;;;;22.36;41.33;101207.24;3500176;83;99005;-87
2022/05/06 15:02:07;;;;;;;5.72;1.82;;;;;;;22.49;39.89;101201.92;3507839;82;99223;-88
2022/05/06 15:07:08;;;;;;;2.75;1.25;;;;;;;22.13;40.75;101204.61;3512883;83;99249;-89
2022/05/06 15:12:09;;;;;;;4.47;1.40;;;;;;;22.29;40.24;101208.20;3510738;82;99226;-90
2022/05/06 15:17:17;;;;;;;3.77;1.60;;;;;;;22.35;39.88;101212.05;3555737;83;26662;-89
2022/05/06 15:22:18;;;;;;;5.87;1.92;;;;;;;22.14;40.51;101199.17;3532658;82;99053;-88
2022/05/06 15:27:21;;;;;;;4.05;1.90;;;;;;;21.99;40.25;101193.72;3486347;84;99171;-88
2022/05/06 15:32:22;;;;;;;7.30;1.70;;;;;;;21.79;40.67;101189.56;3497069;84;98843;-88
2022/05/06 15:37:24;;;;;;;7.40;2.15;;;;;;;21.60;40.94;101192.38;3490650;83;98845;-88
2022/05/06 15:42:25;;;;;;;5.57;2.37;;;;;;;21.44;40.90;101186.13;3529920;81;99146;-88
2022/05/06 15:47:26;;;;;;;4.28;1.90;;;;;;;21.08;41.70;101189.46;3542126;82;98247;-88
2022/05/06 15:52:27;;;;;;;4.87;1.97;;;;;;;20.94;42.46;101179.96;3539283;82;98965;-87
2022/05/06 15:57:28;;;;;;;4.20;1.93;;;;;;;20.71;42.55;101170.78;3545003;81;99155;-89
2022/05/06 16:02:30;;;;;;;4.90;2.15;;;;;;;20.79;43.25;101166.62;3537645;82;99409;-89
2022/05/06 16:07:37;;;;;;;6.67;2.30;;;;;;;20.81;43.47;101165.59;3497253;83;99328;-87
2022/05/06 16:12:34;;;;;;;3.00;1.72;;;;;;;20.76;43.05;101161.27;3438141;84;99224;-88
2022/05/06 16:17:35;;;;;;;5.37;1.70;;;;;;;20.62;42.58;101167.73;3501340;83;99213;-89
2022/05/06 16:22:36;;;;;;;3.62;1.60;;;;;;;20.58;43.06;101162.81;3494641;83;99066;-90
2022/05/06 16:27:39;;;;;;;3.33;1.67;;;;;;;20.64;44.01;101163.89;3499788;83;99163;-88
2022/05/06 16:32:41;;;;;;;5.12;2.10;;;;;;;20.64;44.00;101170.89;3481860;83;99397;-90
2022/05/06 16:37:43;;;;;;;7.42;2.22;;;;;;;20.48;43.47;101171.58;3489476;83;98805;-88
2022/05/06 16:42:46;;;;;;;4.42;2.10;;;;;;;20.30;43.85;101174.48;3485376;82;99379;-90
2022/05/06 16:47:54;;;;;;;3.85;2.10;;;;;;;20.26;44.08;101166.16;3494314;83;99009;-88
2022/05/06 16:52:54;;;;;;;4.97;2.33;;;;;;;20.01;44.09;101170.55;3491073;83;98569;-87
2022/05/06 16:57:55;;;;;;;7.47;2.50;;;;;;;19.94;44.62;101170.67;3503136;83;99169;-87
2022/05/06 17:02:57;;;;;;;8.47;5.00;;;;;;;19.83;45.16;101165.22;3478561;83;98794;-86
2022/05/06 17:07:58;;;;;;;8.27;3.43;;;;;;;19.82;45.69;101157.26;3500292;83;99513;-87
2022/05/06 17:12:59;;;;;;;5.92;2.35;;;;;;;19.80;46.01;101159.09;3547382;82;99005;-87
2022/05/06 17:18:00;;;;;;;7.57;2.20;;;;;;;19.74;45.98;101162.78;3498638;83;99303;-87
2022/05/06 17:23:01;;;;;;;5.40;2.57;;;;;;;19.61;45.77;101160.39;3534660;82;99217;-88
2022/05/06 17:28:02;;;;;;;5.80;2.30;;;;;;;19.46;46.14;101159.77;3557275;82;99120;-89
2022/05/06 17:33:03;;;;;;;3.40;2.00;;;;;;;19.28;46.21;101161.20;3490358;84;99038;-88
2022/05/06 17:38:04;;;;;;;10.07;3.93;;;;;;;19.12;46.55;101161.77;3550115;82;99196;-86
2022/05/06 17:43:05;;;;;;;14.07;5.13;;;;;;;18.85;46.79;101164.31;3496275;83;99481;-88
2022/05/06 17:48:06;;;;;;;12.83;3.27;;;;;;;18.52;47.17;101170.00;3506479;83;98965;-88
2022/05/06 17:53:08;;;;;;;7.67;3.50;;;;;;;18.29;47.92;101163.41;3537029;82;98758;-88
2022/05/06 17:58:10;;;;;;;9.90;4.40;;;;;;;18.12;48.46;101160.98;3484406;83;98752;-87
2022/05/06 18:03:12;;;;;;;9.30;4.03;;;;;;;17.87;49.28;101172.12;3525539;82;98952;-88
2022/05/06 18:08:14;;;;;;;10.70;4.50;;;;;;;17.47;50.58;101165.78;3533358;83;99373;-88
2022/05/06 18:13:15;;;;;;;8.77;3.57;;;;;;;17.24;51.38;101170.45;3529573;82;99135;-89
2022/05/06 18:18:16;;;;;;;9.80;4.20;;;;;;;16.95;52.20;101177.28;3530969;82;99309;-90
2022/05/06 18:23:18;;;;;;;9.30;4.43;;;;;;;16.65;53.26;101184.50;3522164;83;98662;-88
2022/05/06 18:28:19;;;;;;;16.50;9.27;;;;;;;16.36;53.75;101182.93;3532986;83;98937;-88
2022/05/06 18:33:20;;;;;;;19.37;8.87;;;;;;;16.15;54.70;101194.84;3512461;82;99053;-87
2022/05/06 18:38:31;;;;;;;18.80;10.47;;;;;;;15.96;54.59;101199.98;3532646;82;99048;-87
2022/05/06 18:43:32;;;;;;;23.53;13.03;;;;;;;15.75;54.89;101202.09;3524588;82;99287;-86
2022/05/06 18:48:33;;;;;;;25.77;14.63;;;;;;;15.53;55.66;101199.67;3533493;82;99779;-85
2022/05/06 18:53:34;;;;;;;26.13;14.90;;;;;;;15.32;55.99;101208.66;3533805;82;99503;-85
2022/05/06 18:58:36;;;;;;;22.53;13.73;;;;;;;15.18;57.00;101212.77;3506194;83;26437;-85
2022/05/06 19:03:36;;;;;;;19.83;11.60;;;;;;;14.96;57.43;101219.97;3550162;81;99064;-84
2022/05/06 19:08:38;;;;;;;17.20;8.93;;;;;;;14.70;58.23;101223.77;3552896;82;99238;-85
2022/05/06 19:13:40;;;;;;;17.17;8.93;;;;;;;14.49;58.97;101224.21;3534330;82;99506;-85
2022/05/06 19:18:42;;;;;;;13.90;7.83;;;;;;;14.39;59.33;101220.76;3516216;83;98980;-84
2022/05/06 19:29:02;;;;;;;12.00;6.78;;;;;;;14.00;60.62;101222.36;3542331;82;25862;-84
2022/05/06 19:34:03;;;;;;;14.87;7.20;;;;;;;13.85;61.10;101231.69;3545019;82;99268;-84
2022/05/06 19:39:04;;;;;;;17.27;10.00;;;;;;;13.60;61.67;101231.98;3493948;83;98909;-85
2022/05/06 19:44:05;;;;;;;23.03;13.33;;;;;;;13.46;62.29;101224.31;3488942;84;99114;-85
2022/05/06 19:49:06;;;;;;;34.83;20.20;;;;;;;13.25;62.37;101225.43;3534939;82;99406;-82
2022/05/06 19:54:07;;;;;;;43.60;22.87;;;;;;;13.08;63.30;101223.23;3505993;82;99224;-82
2022/05/06 19:59:08;;;;;;;51.83;27.07;;;;;;;12.98;63.36;101228.02;3521756;83;33198;-82
2022/05/06 20:04:10;;;;;;;59.93;31.03;;;;;;;12.83;63.96;101231.75;3505811;83;99020;-82
2022/05/06 20:09:11;;;;;;;54.17;27.30;;;;;;;12.73;64.41;101237.09;3498525;83;99323;-82
2022/05/06 20:14:13;;;;;;;47.20;25.27;;;;;;;12.57;64.77;101231.73;3484174;83;99518;-82
2022/05/06 20:19:14;;;;;;;38.90;21.67;;;;;;;12.42;65.26;101233.27;3551298;82;99173;-82
2022/05/06 20:24:16;;;;;;;38.63;20.20;;;;;;;12.31;65.71;101231.70;3491703;83;99604;-82
2022/05/06 20:29:18;;;;;;;38.10;19.40;;;;;;;12.18;65.98;101227.54;3482743;83;33229;-82
2022/05/06 20:34:19;;;;;;;31.90;16.57;;;;;;;12.11;66.84;101228.00;3489263;83;98953;-82
2022/05/06 20:39:21;;;;;;;29.35;16.90;;;;;;;11.98;66.95;101228.75;3498796;83;99133;-82
2022/05/06 20:44:22;;;;;;;30.50;16.52;;;;;;;11.85;67.30;101229.29;3544804;82;99568;-82
2022/05/06 20:49:23;;;;;;;29.10;15.93;;;;;;;11.71;67.97;101227.06;3553910;82;99161;-82
2022/05/06 20:54:24;;;;;;;30.83;16.27;;;;;;;11.60;68.22;101240.41;3533432;82;99210;-82
2022/05/06 20:59:28;;;;;;;24.37;13.47;;;;;;;11.49;68.75;101243.51;3544667;82;99583;-82
2022/05/06 21:04:28;;;;;;;22.73;12.70;;;;;;;11.36;69.17;101248.95;3504393;83;98772;-81
2022/05/06 21:14:48;;;;;;;16.07;9.30;;;;;;;11.15;69.88;101246.55;3532991;82;99567;-82
2022/05/06 21:19:49;;;;;;;17.63;10.30;;;;;;;11.05;69.97;101241.61;3561560;82;98988;-82
2022/05/06 21:24:50;;;;;;;18.70;8.90;;;;;;;10.97;71.05;101248.11;3551078;82;99130;-81
2022/05/06 21:29:51;;;;;;;16.13;8.93;;;;;;;10.79;72.49;101251.05;3540546;82;98989;-81
2022/05/06 21:34:52;;;;;;;18.90;9.30;;;;;;;10.70;72.26;101244.95;3516606;83;98641;-80
2022/05/06 21:39:54;;;;;;;20.80;10.67;;;;;;;10.67;73.66;101245.66;3512397;83;99121;-80
2022/05/06 21:44:55;;;;;;;17.23;9.13;;;;;;;10.54;74.61;101242.80;3519175;83;99024;-81
2022/05/06 21:49:57;;;;;;;15.37;9.73;;;;;;;10.48;75.16;101248.91;3525398;83;99311;-81
2022/05/06 21:54:58;;;;;;;16.77;9.47;;;;;;;10.42;76.43;101246.22;3536119;83;99313;-81
2022/05/06 21:59:59;;;;;;;15.30;8.90;;;;;;;10.39;76.42;101244.16;3544762;83;99096;-81
2022/05/06 22:05:00;;;;;;;14.87;8.20;;;;;;;10.37;76.55;101247.27;3509252;83;98763;-81
2022/05/06 22:10:01;;;;;;;14.97;8.10;;;;;;;10.36;76.23;101249.80;3515524;83;98859;-81
2022/05/06 22:15:02;;;;;;;13.40;7.50;;;;;;;10.37;76.80;101248.64;3507188;83;98875;-81
2022/05/06 22:20:04;;;;;;;12.55;7.35;;;;;;;10.27;76.70;101248.39;3473125;83;99064;-81
2022/05/06 22:25:06;;;;;;;15.63;7.75;;;;;;;10.22;77.34;101251.40;3507449;83;99379;-81
2022/05/06 22:30:08;;;;;;;12.75;6.33;;;;;;;10.22;77.34;101251.40;3503402;83;99582;-81
2022/05/06 22:35:09;;;;;;;10.38;5.65;;;;;;;10.19;77.50;101250.75;3462230;84;98926;-81
2022/05/06 22:40:11;;;;;;;10.30;4.90;;;;;;;10.14;77.36;101242.76;3517473;83;98811;-81
2022/05/06 22:50:14;;;;;;;10.13;5.00;;;;;;;10.07;78.10;101241.98;3402543;83;99076;-81
2022/05/06 22:55:16;;;;;;;9.53;4.40;;;;;;;10.05;77.92;101231.12;3431847;85;99016;-81
2022/05/06 23:00:17;;;;;;;8.50;4.00;;;;;;;10.03;77.50;101230.66;3436975;85;99180;-80
2022/05/06 23:05:18;;;;;;;7.13;3.60;;;;;;;10.02;76.05;101235.34;3489500;84;98357;-80
2022/05/06 23:10:19;;;;;;;11.33;4.37;;;;;;;9.98;75.37;101228.94;3545688;83;98871;-80
2022/05/06 23:15:20;;;;;;;9.27;3.80;;;;;;;9.96;74.82;101220.82;3522044;82;99113;-81
2022/05/06 23:20:21;;;;;;;8.77;3.73;;;;;;;9.94;74.59;101220.39;3505014;83;98694;-81
2022/05/06 23:25:23;;;;;;;10.93;3.58;;;;;;;9.89;75.11;101220.08;3545652;83;98782;-81
2022/05/06 23:30:25;;;;;;;8.90;3.67;;;;;;;9.80;75.63;101224.94;3554185;82;98616;-81
2022/05/06 23:35:26;;;;;;;7.40;3.30;;;;;;;9.68;75.99;101221.45;3503909;83;98541;-82
2022/05/06 23:40:27;;;;;;;10.23;3.60;;;;;;;9.62;75.94;101221.48;3469685;84;32259;-81
2022/05/06 23:45:28;;;;;;;7.53;4.07;;;;;;;9.53;76.05;101220.27;3461198;84;98570;-81
2022/05/06 23:50:29;;;;;;;8.00;3.77;;;;;;;9.44;76.10;101221.58;3506335;83;98440;-81
2022/05/06 23:55:29;;;;;;;7.43;3.83;;;;;;;9.36;76.20;101216.45;3511105;83;98441;-81
